Birney, Montana
Current Conditions -  °F | °C
As of 7:53 AM on Thursday 30 Oct 2014 (Local Time) from KSHR Reporting Station
Clear Clear  
Wind Chill: 26°   Ceiling: Unl
Heat Index: 31°   Visibility: 10mi
Dew Point: 24°   Wind: 5mph
Humidity: 76%   Direction: 240°WSW
Pressure: 30.31"   Gusts: NA
Location:  45.32°N, 106.51°W
Report Text: KSHR 301353Z AUTO 24004KT 10SM CLR M01/M04 A3031 RMK AO2 SLP283 T10061044 TSNO
Loading
Personal Weather Stations






























Interactive Weather Map
Tropical Storm Tracking
New forecast layout! Learn more

10-Day Weather Forecast

Advertisements
Track Severe Weather on mobile